Time;durP1;ratioP1;P1;durP2;ratioP2;P2;SDS_P1;SDS_P2;PMS_P1;PMS_P2;Temp;Humidity;BMP_temperature;BMP_pressure;BME280_temperature;BME280_humidity;BME280_pressure;Samples;Min_cycle;Max_cycle;Signal;HPM_P1;HPM_P2
2021/10/13 00:00:18;;;;;;;7.55;5.65;;;;;;;;;;5075600;28;20408;-85
2021/10/13 00:02:44;;;;;;;11.95;5.93;;;;;;;;;;5084807;28;20223;-85
2021/10/13 00:05:11;;;;;;;11.40;5.70;;;;;;;;;;5092458;28;20066;-85
2021/10/13 00:07:38;;;;;;;8.35;5.80;;;;;;;;;;5074376;28;20064;-85
2021/10/13 00:10:05;;;;;;;10.18;5.85;;;;;;;;;;5092485;28;20405;-86
2021/10/13 00:12:33;;;;;;;10.00;7.40;;;;;;;;;;5066584;28;20052;-86
2021/10/13 00:15:04;;;;;;;12.02;7.47;;;;;;;;;;5068350;28;20048;-86
2021/10/13 00:17:31;;;;;;;14.35;7.97;;;;;;;;;;5094480;28;20048;-85
2021/10/13 00:19:58;;;;;;;13.93;7.50;;;;;;;;;;5075343;28;20067;-85
2021/10/13 00:22:24;;;;;;;13.88;7.22;;;;;;;;;;5071890;28;20040;-85
2021/10/13 00:24:51;;;;;;;11.38;6.25;;;;;;;;;;5073629;28;20058;-85
2021/10/13 00:27:18;;;;;;;15.02;6.43;;;;;;;;;;5076698;28;20052;-86
2021/10/13 00:29:44;;;;;;;12.98;7.13;;;;;;;;;;5075285;28;20500;-85
2021/10/13 00:32:11;;;;;;;12.55;6.68;;;;;;;;;;5077043;28;20050;-85
2021/10/13 00:34:43;;;;;;;13.63;5.97;;;;;;;;;;5061421;28;20056;-85
2021/10/13 00:37:10;;;;;;;8.98;5.90;;;;;;;;;;5079516;28;20071;-85
2021/10/13 00:39:36;;;;;;;10.20;6.38;;;;;;;;;;5088821;28;20535;-86
2021/10/13 00:42:06;;;;;;;11.80;6.95;;;;;;;;;;5080640;28;20067;-85
2021/10/13 00:44:33;;;;;;;11.60;6.35;;;;;;;;;;5098227;28;20044;-85
2021/10/13 00:47:00;;;;;;;10.57;6.15;;;;;;;;;;5108625;28;20059;-85
2021/10/13 00:49:27;;;;;;;19.92;7.28;;;;;;;;;;5106778;28;20049;-85
2021/10/13 00:51:54;;;;;;;11.38;6.30;;;;;;;;;;5086066;28;20172;-86
2021/10/13 00:54:22;;;;;;;14.80;6.88;;;;;;;;;;5060437;28;20044;-85
2021/10/13 00:56:49;;;;;;;13.35;6.55;;;;;;;;;;5059815;28;20053;-85
2021/10/13 00:59:16;;;;;;;8.82;5.63;;;;;;;;;;5074299;27;20409;-85
2021/10/13 01:01:49;;;;;;;8.30;5.50;;;;;;;;;;5114890;27;20067;-86
2021/10/13 01:04:34;;;;;;;8.85;5.13;;;;;;;;;;5100131;28;20249;-86
2021/10/13 01:07:13;;;;;;;14.88;6.15;;;;;;;;;;5100168;28;20059;-85
2021/10/13 01:10:00;;;;;;;9.50;6.38;;;;;;;;;;5117016;28;20058;-85
2021/10/13 01:12:32;;;;;;;12.05;6.57;;;;;;;;;;5068356;28;20060;-85
2021/10/13 01:15:04;;;;;;;12.65;6.35;;;;;;;;;;5098390;28;20215;-86
2021/10/13 01:17:35;;;;;;;12.63;6.72;;;;;;;;;;5080698;28;20067;-85
2021/10/13 01:20:20;;;;;;;11.75;6.10;;;;;;;;;;5081035;28;20257;-86
2021/10/13 01:23:18;;;;;;;8.95;5.85;;;;;;;;;;5114451;28;20062;-86
2021/10/13 01:25:49;;;;;;;10.02;6.10;;;;;;;;;;5099534;28;20407;-85
2021/10/13 01:28:19;;;;;;;6.95;5.10;;;;;;;;;;5099909;28;20069;-85
2021/10/13 01:30:50;;;;;;;10.27;5.60;;;;;;;;;;5118250;28;20066;-85
2021/10/13 01:33:35;;;;;;;8.90;5.32;;;;;;;;;;5076713;28;20056;-85
2021/10/13 01:36:04;;;;;;;8.80;4.78;;;;;;;;;;5067285;28;20063;-85
2021/10/13 01:38:33;;;;;;;8.63;4.60;;;;;;;;;;5073888;28;20059;-86
2021/10/13 01:41:02;;;;;;;10.63;5.13;;;;;;;;;;5092605;28;20100;-85
2021/10/13 01:43:32;;;;;;;10.05;4.95;;;;;;;;;;5068945;28;20126;-85
2021/10/13 01:46:01;;;;;;;7.07;4.32;;;;;;;;;;5096982;28;20052;-85
2021/10/13 01:48:28;;;;;;;6.47;4.95;;;;;;;;;;5079014;28;20067;-85
2021/10/13 01:50:54;;;;;;;7.95;5.38;;;;;;;;;;5079351;28;20052;-86
2021/10/13 01:53:24;;;;;;;8.60;4.93;;;;;;;;;;5076159;28;20056;-86
2021/10/13 01:55:55;;;;;;;7.97;5.00;;;;;;;;;;5077789;28;20048;-85
2021/10/13 01:58:22;;;;;;;10.73;5.57;;;;;;;;;;5080987;28;20123;-86
2021/10/13 02:00:50;;;;;;;15.75;6.03;;;;;;;;;;5097353;28;20066;-86
2021/10/13 02:03:19;;;;;;;14.95;6.03;;;;;;;;;;5077483;28;20436;-85
2021/10/13 02:05:48;;;;;;;11.65;5.88;;;;;;;;;;5059073;28;20057;-85
2021/10/13 02:08:15;;;;;;;12.07;5.93;;;;;;;;;;5059356;28;20057;-85
2021/10/13 02:10:44;;;;;;;9.57;6.35;;;;;;;;;;5059591;28;20048;-84
2021/10/13 02:13:12;;;;;;;10.73;6.00;;;;;;;;;;5077192;28;20074;-85
2021/10/13 02:15:40;;;;;;;16.17;6.78;;;;;;;;;;5080144;28;20067;-85
2021/10/13 02:18:18;;;;;;;12.77;6.07;;;;;;;;;;5115175;28;20070;-84
2021/10/13 02:20:45;;;;;;;9.98;5.72;;;;;;;;;;5116242;28;20331;-84
2021/10/13 02:23:13;;;;;;;8.98;6.30;;;;;;;;;;5079487;28;20048;-84
2021/10/13 02:25:40;;;;;;;9.73;7.03;;;;;;;;;;5095741;28;20056;-84
2021/10/13 02:28:12;;;;;;;10.80;6.10;;;;;;;;;;5095096;28;20463;-84
2021/10/13 02:30:40;;;;;;;12.63;5.93;;;;;;;;;;5095307;28;20183;-84
2021/10/13 02:33:06;;;;;;;9.65;6.28;;;;;;;;;;5095790;28;20079;-84
2021/10/13 02:35:33;;;;;;;9.70;5.55;;;;;;;;;;5073773;28;20125;-84
2021/10/13 02:38:00;;;;;;;9.93;6.32;;;;;;;;;;5057771;28;20114;-84
2021/10/13 02:40:29;;;;;;;13.45;5.90;;;;;;;;;;5086076;28;20135;-84
2021/10/13 02:42:58;;;;;;;9.13;5.60;;;;;;;;;;5070793;28;20048;-84
2021/10/13 02:45:29;;;;;;;11.00;6.00;;;;;;;;;;5077592;28;20082;-84
2021/10/13 02:48:02;;;;;;;15.68;6.72;;;;;;;;;;5094085;28;20044;-84
2021/10/13 02:50:36;;;;;;;9.88;6.72;;;;;;;;;;5065470;28;20048;-84
2021/10/13 02:53:10;;;;;;;8.77;5.97;;;;;;;;;;5077399;28;20075;-84
2021/10/13 02:55:58;;;;;;;15.63;6.20;;;;;;;;;;5056931;28;20044;-84
2021/10/13 02:58:39;;;;;;;13.07;7.13;;;;;;;;;;5057267;28;20443;-84
2021/10/13 03:01:09;;;;;;;8.68;5.70;;;;;;;;;;5079174;28;20044;-84
2021/10/13 03:03:43;;;;;;;8.60;6.35;;;;;;;;;;5079091;28;20041;-84
2021/10/13 03:06:10;;;;;;;9.95;5.80;;;;;;;;;;5079460;28;20052;-84
2021/10/13 03:08:38;;;;;;;12.70;6.50;;;;;;;;;;5076688;28;20052;-84
2021/10/13 03:11:05;;;;;;;10.57;5.80;;;;;;;;;;5092829;28;20054;-84
2021/10/13 03:13:33;;;;;;;10.07;6.45;;;;;;;;;;5093850;28;20208;-84
2021/10/13 03:16:24;;;;;;;7.78;5.35;;;;;;;;;;5077824;28;20060;-83
2021/10/13 03:18:51;;;;;;;11.95;6.53;;;;;;;;;;5097523;28;20052;-83
2021/10/13 03:21:23;;;;;;;13.77;6.10;;;;;;;;;;5063850;28;20340;-85
2021/10/13 03:23:50;;;;;;;12.15;7.10;;;;;;;;;;5062525;28;20044;-83
2021/10/13 03:26:17;;;;;;;11.98;7.07;;;;;;;;;;5083767;28;20044;-83
2021/10/13 03:28:43;;;;;;;11.70;7.30;;;;;;;;;;5059951;28;20056;-83
2021/10/13 03:31:13;;;;;;;10.13;6.50;;;;;;;;;;5095852;28;20239;-83
2021/10/13 03:33:40;;;;;;;10.43;6.25;;;;;;;;;;5099084;28;20047;-83
2021/10/13 03:36:07;;;;;;;13.35;6.80;;;;;;;;;;5113600;28;20344;-84
2021/10/13 03:38:34;;;;;;;12.35;7.82;;;;;;;;;;5078793;28;20062;-84
2021/10/13 03:41:01;;;;;;;11.75;7.63;;;;;;;;;;5096643;28;20146;-84
2021/10/13 03:43:27;;;;;;;10.82;7.32;;;;;;;;;;5100021;28;20107;-84
2021/10/13 03:45:54;;;;;;;10.10;6.85;;;;;;;;;;5087447;28;20443;-83
2021/10/13 03:48:21;;;;;;;11.38;7.10;;;;;;;;;;5080671;28;20066;-83
2021/10/13 03:50:47;;;;;;;12.05;6.78;;;;;;;;;;5089159;28;20475;-83
2021/10/13 03:53:17;;;;;;;11.85;7.38;;;;;;;;;;5066538;28;20131;-83
2021/10/13 03:55:46;;;;;;;11.02;6.75;;;;;;;;;;5062479;28;20056;-83
2021/10/13 03:58:12;;;;;;;8.93;6.13;;;;;;;;;;5059624;28;20323;-84
2021/10/13 04:00:39;;;;;;;8.05;6.13;;;;;;;;;;5086055;28;20435;-83
2021/10/13 04:03:06;;;;;;;9.85;6.32;;;;;;;;;;5065472;28;20060;-83
2021/10/13 04:05:33;;;;;;;10.02;6.75;;;;;;;;;;5060865;28;20065;-83
2021/10/13 04:07:59;;;;;;;17.20;7.68;;;;;;;;;;5076588;28;20045;-84
2021/10/13 04:10:26;;;;;;;8.95;6.47;;;;;;;;;;5091141;28;20052;-83
2021/10/13 04:12:53;;;;;;;11.88;6.60;;;;;;;;;;5077561;28;20183;-83
2021/10/13 04:15:20;;;;;;;11.93;7.38;;;;;;;;;;5097536;28;20095;-83
2021/10/13 04:17:48;;;;;;;8.43;6.82;;;;;;;;;;5095411;28;20044;-83
2021/10/13 04:20:14;;;;;;;10.50;7.35;;;;;;;;;;5065480;28;20053;-83
2021/10/13 04:22:41;;;;;;;13.18;7.20;;;;;;;;;;5088841;28;20070;-83
2021/10/13 04:25:14;;;;;;;12.85;8.18;;;;;;;;;;5077588;28;20196;-83
2021/10/13 04:27:43;;;;;;;10.02;6.90;;;;;;;;;;5091130;28;20036;-83
2021/10/13 04:30:09;;;;;;;11.63;7.47;;;;;;;;;;5092030;28;20049;-83
2021/10/13 04:32:36;;;;;;;10.55;7.60;;;;;;;;;;5085509;28;20052;-83
2021/10/13 04:35:03;;;;;;;13.73;8.43;;;;;;;;;;5066391;28;20056;-83
2021/10/13 04:37:30;;;;;;;13.38;8.15;;;;;;;;;;5065500;28;20059;-83
2021/10/13 04:40:04;;;;;;;9.95;6.70;;;;;;;;;;5089396;28;20115;-83
2021/10/13 04:42:31;;;;;;;8.90;6.63;;;;;;;;;;5122842;27;20085;-83
2021/10/13 04:44:58;;;;;;;8.68;6.60;;;;;;;;;;5088817;28;20036;-83
2021/10/13 04:47:30;;;;;;;11.43;7.32;;;;;;;;;;5084257;28;20237;-83
2021/10/13 04:49:57;;;;;;;11.88;7.43;;;;;;;;;;5077200;28;20054;-83
2021/10/13 04:52:23;;;;;;;11.02;6.68;;;;;;;;;;5072231;28;20054;-83
2021/10/13 04:54:50;;;;;;;11.20;7.65;;;;;;;;;;5083647;28;20047;-84
2021/10/13 04:57:16;;;;;;;11.77;7.68;;;;;;;;;;5067892;28;20053;-83
2021/10/13 04:59:43;;;;;;;16.20;8.80;;;;;;;;;;5063241;28;20044;-83
2021/10/13 05:02:09;;;;;;;12.05;8.15;;;;;;;;;;5076047;28;20292;-82
2021/10/13 05:04:39;;;;;;;11.93;7.20;;;;;;;;;;5060505;28;20044;-83
2021/10/13 05:07:06;;;;;;;14.98;8.55;;;;;;;;;;5077726;28;20048;-83
2021/10/13 05:09:32;;;;;;;11.07;8.50;;;;;;;;;;5077156;28;20044;-83
2021/10/13 05:11:59;;;;;;;12.35;8.00;;;;;;;;;;5080844;28;20047;-84
2021/10/13 05:14:26;;;;;;;12.90;7.78;;;;;;;;;;5077755;28;20424;-83
2021/10/13 05:16:53;;;;;;;16.02;7.05;;;;;;;;;;5094687;28;20193;-84
2021/10/13 05:19:23;;;;;;;12.63;7.30;;;;;;;;;;5075382;28;20427;-84
2021/10/13 05:21:59;;;;;;;10.25;6.90;;;;;;;;;;5059621;28;20056;-83
2021/10/13 05:24:25;;;;;;;11.40;7.15;;;;;;;;;;5063278;28;20233;-83
2021/10/13 05:26:52;;;;;;;16.63;8.48;;;;;;;;;;5071209;28;20047;-84
2021/10/13 05:29:20;;;;;;;15.45;7.65;;;;;;;;;;5073863;28;20053;-83
2021/10/13 05:31:50;;;;;;;12.23;8.38;;;;;;;;;;5074310;28;20219;-83
2021/10/13 05:34:19;;;;;;;12.15;7.82;;;;;;;;;;5056264;28;20534;-85
2021/10/13 05:36:46;;;;;;;13.15;8.30;;;;;;;;;;5054924;28;20063;-83
2021/10/13 05:39:16;;;;;;;17.27;8.45;;;;;;;;;;5055912;28;20049;-83
2021/10/13 05:41:43;;;;;;;17.45;7.78;;;;;;;;;;5058847;28;20059;-84
2021/10/13 05:44:09;;;;;;;12.23;8.35;;;;;;;;;;5071367;28;20288;-84
2021/10/13 05:46:37;;;;;;;21.50;9.60;;;;;;;;;;5063889;28;20048;-83
2021/10/13 05:49:04;;;;;;;13.65;9.18;;;;;;;;;;5081606;28;20111;-84
2021/10/13 05:51:33;;;;;;;21.73;9.82;;;;;;;;;;5083422;28;20044;-84
2021/10/13 05:54:00;;;;;;;16.17;9.25;;;;;;;;;;5053713;28;20127;-83
2021/10/13 05:56:27;;;;;;;18.85;10.25;;;;;;;;;;5071996;28;20055;-84
2021/10/13 05:58:57;;;;;;;17.02;9.52;;;;;;;;;;5067106;28;20063;-83
2021/10/13 06:01:27;;;;;;;12.70;9.43;;;;;;;;;;5059136;28;20104;-84
2021/10/13 06:03:54;;;;;;;15.43;8.75;;;;;;;;;;5081748;28;20040;-83
2021/10/13 06:06:21;;;;;;;18.08;9.38;;;;;;;;;;5112277;28;20334;-83
2021/10/13 06:08:49;;;;;;;17.92;10.02;;;;;;;;;;5069348;28;20134;-84
2021/10/13 06:11:16;;;;;;;13.32;9.80;;;;;;;;;;5093895;28;20051;-85
2021/10/13 06:13:46;;;;;;;14.82;11.98;;;;;;;;;;5071082;28;20247;-84
2021/10/13 06:16:13;;;;;;;17.42;12.52;;;;;;;;;;5074690;28;20052;-84
2021/10/13 06:18:40;;;;;;;23.48;15.40;;;;;;;;;;5057006;28;20056;-85
2021/10/13 06:21:07;;;;;;;31.67;19.23;;;;;;;;;;5071063;28;20044;-83
2021/10/13 06:23:34;;;;;;;24.70;16.00;;;;;;;;;;5076633;28;20059;-83
2021/10/13 06:26:01;;;;;;;18.30;12.32;;;;;;;;;;5081723;28;20053;-84
2021/10/13 06:28:27;;;;;;;14.00;10.40;;;;;;;;;;5074060;28;20063;-84
2021/10/13 06:30:54;;;;;;;13.60;8.48;;;;;;;;;;5099829;28;20052;-84
2021/10/13 06:33:24;;;;;;;16.65;7.85;;;;;;;;;;5101479;28;20051;-84
2021/10/13 06:35:55;;;;;;;12.65;6.90;;;;;;;;;;5103926;28;20051;-84
2021/10/13 06:38:22;;;;;;;12.82;5.95;;;;;;;;;;5090873;28;20052;-86
2021/10/13 06:40:51;;;;;;;13.80;6.93;;;;;;;;;;5096256;28;20051;-85
2021/10/13 06:43:42;;;;;;;12.20;5.88;;;;;;;;;;5120395;28;20314;-86
2021/10/13 06:46:09;;;;;;;16.40;5.30;;;;;;;;;;5088046;28;20084;-87
2021/10/13 06:48:43;;;;;;;10.38;4.35;;;;;;;;;;5099247;28;20221;-87
2021/10/13 06:51:11;;;;;;;9.32;5.50;;;;;;;;;;5077888;28;20296;-84
2021/10/13 06:53:46;;;;;;;12.30;5.10;;;;;;;;;;5076989;28;20105;-85
2021/10/13 06:56:13;;;;;;;10.13;4.65;;;;;;;;;;5079202;28;20062;-84
2021/10/13 06:58:40;;;;;;;9.10;4.28;;;;;;;;;;5073282;28;20140;-85
2021/10/13 07:01:08;;;;;;;10.40;3.72;;;;;;;;;;5071479;28;20044;-85
2021/10/13 07:03:38;;;;;;;4.70;3.03;;;;;;;;;;5063806;28;20112;-85
2021/10/13 07:12:53;;;;;;;;;;;;;;;;;;;;;
2021/10/13 07:15:39;;;;;;;17.00;2.92;;;;;;;;;;5094716;28;20242;-84
2021/10/13 07:18:13;;;;;;;;;;;;;;;;;;5083556;28;20040;-84
2021/10/13 07:21:18;;;;;;;10.50;3.33;;;;;;;;;;5109054;28;20389;-85
2021/10/13 07:24:25;;;;;;;8.73;2.63;;;;;;;;;;5098205;28;20298;-85
2021/10/13 07:27:16;;;;;;;;;;;;;;;;;;5064519;28;20484;-85
2021/10/13 07:30:11;;;;;;;5.27;2.67;;;;;;;;;;5052724;28;20089;-85
2021/10/13 07:33:01;;;;;;;9.32;3.47;;;;;;;;;;5053305;28;20033;-85
2021/10/13 07:35:34;;;;;;;11.50;3.80;;;;;;;;;;5081352;28;20086;-83
2021/10/13 07:38:29;;;;;;;7.57;2.95;;;;;;;;;;5058574;28;20230;-83
2021/10/13 07:41:25;;;;;;;;;;;;;;;;;;;;;
2021/10/13 07:44:08;;;;;;;5.75;3.00;;;;;;;;;;5089182;28;20134;-84
2021/10/13 07:46:44;;;;;;;15.52;4.00;;;;;;;;;;5084536;28;20039;-84
2021/10/13 07:49:40;;;;;;;;;;;;;;;;;;;;;
2021/10/13 07:55:57;;;;;;;11.40;2.90;;;;;;;;;;5082168;28;20052;-84
2021/10/13 07:59:08;;;;;;;7.25;2.40;;;;;;;;;;5075136;28;20281;-84
2021/10/13 08:02:04;;;;;;;;;;;;;;;;;;;;;
2021/10/13 08:05:36;;;;;;;;;;;;;;;;;;;;;
2021/10/13 08:08:31;;;;;;;7.15;2.20;;;;;;;;;;4967308;28;20522;-83
2021/10/13 08:11:36;;;;;;;4.85;1.60;;;;;;;;;;4968022;28;20078;-83
2021/10/13 08:14:37;;;;;;;7.55;1.70;;;;;;;;;;4946562;28;20062;-83
2021/10/13 08:17:28;;;;;;;8.27;1.85;;;;;;;;;;4979628;28;20051;-83
2021/10/13 08:20:10;;;;;;;6.65;1.77;;;;;;;;;;4970491;28;20182;-84
2021/10/13 08:22:59;;;;;;;5.97;1.70;;;;;;;;;;4947872;29;20637;-83
2021/10/13 08:26:05;;;;;;;7.35;1.77;;;;;;;;;;4952018;28;20364;-84
2021/10/13 08:28:57;;;;;;;6.22;1.88;;;;;;;;;;4968213;28;20056;-83
2021/10/13 08:31:50;;;;;;;5.97;1.88;;;;;;;;;;4985808;28;20085;-83
2021/10/13 08:34:37;;;;;;;6.63;2.08;;;;;;;;;;5027031;28;20309;-83
2021/10/13 08:37:35;;;;;;;3.85;1.65;;;;;;;;;;5046089;28;20059;-84
2021/10/13 08:40:21;;;;;;;4.43;1.77;;;;;;;;;;5045009;28;20149;-85
2021/10/13 08:43:03;;;;;;;8.73;1.98;;;;;;;;;;5051138;28;20049;-86
2021/10/13 08:45:46;;;;;;;6.55;1.60;;;;;;;;;;5029941;28;20055;-85
2021/10/13 08:48:15;;;;;;;5.85;1.52;;;;;;;;;;5045496;28;20061;-85
2021/10/13 08:50:45;;;;;;;10.75;2.65;;;;;;;;;;5045259;28;20144;-85
2021/10/13 08:53:15;;;;;;;6.07;1.90;;;;;;;;;;5031786;28;20156;-85
2021/10/13 08:55:46;;;;;;;9.13;1.85;;;;;;;;;;5033330;28;20188;-83
2021/10/13 08:58:18;;;;;;;7.60;2.13;;;;;;;;;;5042269;28;20053;-84
2021/10/13 09:01:05;;;;;;;8.82;2.38;;;;;;;;;;5035015;28;20240;-83
2021/10/13 09:03:44;;;;;;;7.55;1.85;;;;;;;;;;5045885;28;20376;-84
2021/10/13 09:06:32;;;;;;;6.75;2.00;;;;;;;;;;5035079;28;20073;-84
2021/10/13 09:09:21;;;;;;;5.22;1.70;;;;;;;;;;5048280;28;20145;-85
2021/10/13 09:12:07;;;;;;;7.60;1.70;;;;;;;;;;5031173;28;20103;-84
2021/10/13 09:14:42;;;;;;;7.72;1.67;;;;;;;;;;5046388;28;20068;-84
2021/10/13 09:17:11;;;;;;;6.53;1.48;;;;;;;;;;5071271;28;20113;-83
2021/10/13 09:20:05;;;;;;;8.73;1.83;;;;;;;;;;5064356;28;20130;-84
2021/10/13 09:23:36;;;;;;;;;;;;;;;;;;;;;
2021/10/13 09:26:54;;;;;;;7.40;1.52;;;;;;;;;;5049197;28;20138;-84
2021/10/13 09:29:46;;;;;;;6.47;1.40;;;;;;;;;;5059192;28;20052;-84
2021/10/13 09:32:46;;;;;;;6.90;1.45;;;;;;;;;;5054480;28;20077;-84
2021/10/13 09:35:31;;;;;;;5.78;1.27;;;;;;;;;;5066306;28;20476;-83
2021/10/13 09:38:31;;;;;;;7.35;1.70;;;;;;;;;;5070376;28;20261;-83
2021/10/13 09:41:33;;;;;;;4.82;1.30;;;;;;;;;;5070951;28;20329;-83
2021/10/13 09:44:24;;;;;;;6.40;1.20;;;;;;;;;;5061386;28;20211;-85
2021/10/13 09:47:33;;;;;;;3.58;0.98;;;;;;;;;;5052233;28;20151;-84
2021/10/13 09:50:14;;;;;;;7.35;1.40;;;;;;;;;;5052501;28;20398;-83
2021/10/13 09:52:51;;;;;;;5.50;1.30;;;;;;;;;;5060049;28;20213;-84
2021/10/13 10:02:53;;;;;;;7.93;1.20;;;;;;;;;;5064699;28;20037;-84
2021/10/13 10:05:51;;;;;;;6.93;1.45;;;;;;;;;;5087369;28;20137;-83
2021/10/13 10:09:15;;;;;;;6.63;1.73;;;;;;;;;;5068400;28;20044;-83
2021/10/13 10:11:50;;;;;;;4.60;1.70;;;;;;;;;;4984378;28;20106;-84
2021/10/13 10:14:43;;;;;;;7.05;2.28;;;;;;;;;;5073975;28;20151;-84
2021/10/13 10:17:40;;;;;;;9.60;1.85;;;;;;;;;;5063316;28;20045;-85
2021/10/13 10:23:30;;;;;;;5.53;1.80;;;;;;;;;;5079809;28;20048;-85
2021/10/13 10:37:20;;;;;;;10.20;2.45;;;;;;;;;;4966167;28;20047;-87
2021/10/13 10:40:42;;;;;;;10.35;2.47;;;;;;;;;;5054967;28;20327;-87
2021/10/13 10:43:35;;;;;;;9.48;2.47;;;;;;;;;;5075498;28;20070;-88
2021/10/13 10:49:54;;;;;;;15.20;3.78;;;;;;;;;;5086082;28;20039;-87
2021/10/13 10:53:30;;;;;;;;;;;;;;;;;;;;;
2021/10/13 10:56:44;;;;;;;6.43;1.90;;;;;;;;;;5068271;28;20314;-86
2021/10/13 11:03:33;;;;;;;4.30;1.92;;;;;;;;;;5066406;28;20024;-85
2021/10/13 11:06:59;;;;;;;7.95;2.45;;;;;;;;;;5072477;28;20093;-85
2021/10/13 11:09:38;;;;;;;9.57;3.03;;;;;;;;;;5061841;28;20040;-86
2021/10/13 11:12:35;;;;;;;8.93;2.42;;;;;;;;;;5072883;28;20316;-85
2021/10/13 11:15:38;;;;;;;7.75;2.60;;;;;;;;;;4994335;28;20300;-84
2021/10/13 11:18:39;;;;;;;9.63;2.60;;;;;;;;;;5067718;28;20052;-85
2021/10/13 11:21:13;;;;;;;8.55;2.65;;;;;;;;;;5031507;28;20087;-85
2021/10/13 11:25:03;;;;;;;;;;;;;;;;;;;;;
2021/10/13 11:31:07;;;;;;;6.75;2.00;;;;;;;;;;5047684;28;20315;-86
2021/10/13 11:33:56;;;;;;;10.70;3.05;;;;;;;;;;5066772;28;20222;-86
2021/10/13 11:37:04;;;;;;;;;;;;;;;;;;;;;
2021/10/13 11:40:12;;;;;;;5.22;1.73;;;;;;;;;;5046318;28;20057;-86
2021/10/13 11:43:11;;;;;;;6.18;2.20;;;;;;;;;;5050594;28;20057;-84
2021/10/13 11:46:29;;;;;;;4.43;1.73;;;;;;;;;;5064918;28;20348;-84
2021/10/13 11:50:05;;;;;;;11.32;2.03;;;;;;;;;;5017409;28;20221;-85
2021/10/13 12:03:31;;;;;;;8.13;1.50;;;;;;;;;;4962559;28;20121;-84
2021/10/13 12:18:49;;;;;;;4.55;0.85;;;;;;;;;;5087729;28;20078;-84
2021/10/13 12:25:35;;;;;;;7.93;1.25;;;;;;;;;;5037690;28;20053;-85
2021/10/13 12:28:50;;;;;;;4.57;1.27;;;;;;;;;;5066300;28;20060;-84
2021/10/13 12:35:51;;;;;;;;;;;;;;;;;;;;;
2021/10/13 12:39:16;;;;;;;;;;;;;;;;;;;;;
2021/10/13 12:42:37;;;;;;;;;;;;;;;;;;;;;
2021/10/13 12:53:10;;;;;;;4.70;0.60;;;;;;;;;;4885232;29;20104;-85
2021/10/13 13:03:21;;;;;;;;;;;;;;;;;;;;;
2021/10/13 13:09:49;;;;;;;7.72;0.82;;;;;;;;;;4877430;29;20035;-84
2021/10/13 13:13:23;;;;;;;;;;;;;;;;;;;;;
2021/10/13 13:16:50;;;;;;;3.25;1.02;;;;;;;;;;4770932;29;20092;-85
2021/10/13 13:20:14;;;;;;;;;;;;;;;;;;;;;
2021/10/13 13:30:29;;;;;;;3.95;0.82;;;;;;;;;;4999735;28;20335;-83
2021/10/13 13:40:39;;;;;;;;;;;;;;;;;;;;;
2021/10/13 13:51:07;;;;;;;;;;;;;;;;;;;;;
2021/10/13 14:04:28;;;;;;;4.03;0.80;;;;;;;;;;4987254;28;20211;-85
2021/10/13 14:07:48;;;;;;;3.85;0.93;;;;;;;;;;4993532;28;20373;-84
2021/10/13 14:10:55;;;;;;;4.32;0.82;;;;;;;;;;4950824;29;20286;-86
2021/10/13 14:14:27;;;;;;;;;;;;;;;;;;;;;
2021/10/13 14:39:36;;;;;;;;;;;;;;;;;;;;;
2021/10/13 14:46:43;;;;;;;6.18;1.30;;;;;;;;;;4998916;28;20060;-84
2021/10/13 14:53:42;;;;;;;4.55;0.77;;;;;;;;;;4932459;28;20185;-85
2021/10/13 14:57:17;;;;;;;;;;;;;;;;;;;;;
2021/10/13 15:00:40;;;;;;;3.92;1.27;;;;;;;;;;4973673;28;20058;-85
2021/10/13 15:07:19;;;;;;;5.45;1.20;;;;;;;;;;4965111;28;20069;-85
2021/10/13 15:10:23;;;;;;;3.42;1.45;;;;;;;;;;4896062;29;20059;-85
2021/10/13 15:13:38;;;;;;;2.90;1.30;;;;;;;;;;4929774;29;20063;-85
2021/10/13 15:16:57;;;;;;;7.15;1.10;;;;;;;;;;4902972;29;20431;-85
2021/10/13 15:23:09;;;;;;;5.60;1.08;;;;;;;;;;4983842;28;20069;-84
2021/10/13 15:29:29;;;;;;;9.38;1.20;;;;;;;;;;4993543;28;20046;-85
2021/10/13 15:32:37;;;;;;;;;;;;;;;;;;4997270;28;20155;-85
2021/10/13 15:35:31;;;;;;;8.73;1.30;;;;;;;;;;5056824;28;20044;-83
2021/10/13 15:38:34;;;;;;;10.32;1.80;;;;;;;;;;5077299;28;20033;-84
2021/10/13 15:41:34;;;;;;;;;;;;;;;;;;;;;
2021/10/13 15:44:28;;;;;;;10.60;2.47;;;;;;;;;;5054343;28;20148;-84
2021/10/13 15:47:20;;;;;;;11.60;2.28;;;;;;;;;;5062904;28;20108;-83
2021/10/13 15:50:18;;;;;;;6.30;1.10;;;;;;;;;;5064758;28;20107;-83
2021/10/13 15:53:26;;;;;;;9.93;1.40;;;;;;;;;;5008060;28;20127;-84
2021/10/13 15:59:39;;;;;;;8.80;1.33;;;;;;;;;;5027776;28;20049;-84
2021/10/13 16:03:20;;;;;;;8.05;1.38;;;;;;;;;;5042678;28;20345;-83
2021/10/13 16:05:59;;;;;;;10.68;1.58;;;;;;;;;;5054996;28;20045;-85
2021/10/13 16:08:37;;;;;;;6.82;1.40;;;;;;;;;;5050524;28;20229;-84
2021/10/13 16:11:22;;;;;;;7.38;1.80;;;;;;;;;;4963627;28;20255;-84
2021/10/13 16:14:20;;;;;;;;;;;;;;;;;;;;;
2021/10/13 16:17:36;;;;;;;8.00;1.63;;;;;;;;;;4891223;29;20048;-83
2021/10/13 16:20:42;;;;;;;7.28;1.77;;;;;;;;;;4887893;29;20148;-83
2021/10/13 16:23:16;;;;;;;7.50;1.33;;;;;;;;;;4889652;29;20095;-83
2021/10/13 16:29:14;;;;;;;5.00;1.25;;;;;;;;;;4907370;29;20103;-83
2021/10/13 16:31:54;;;;;;;10.98;1.38;;;;;;;;;;4910997;29;20287;-83
2021/10/13 16:34:39;;;;;;;;;;;;;;;;;;4912699;29;20085;-83
2021/10/13 16:37:12;;;;;;;7.35;1.33;;;;;;;;;;4918413;29;19942;-83
2021/10/13 16:40:00;;;;;;;;;;;;;;;;;;;;;
2021/10/13 16:42:49;;;;;;;8.77;1.58;;;;;;;;;;4909988;29;20605;-84
2021/10/13 16:45:44;;;;;;;10.55;1.67;;;;;;;;;;4971178;28;20045;-84
2021/10/13 16:48:18;;;;;;;8.43;2.15;;;;;;;;;;5030144;28;20055;-84
2021/10/13 16:50:50;;;;;;;10.15;2.08;;;;;;;;;;5061819;28;20499;-84
2021/10/13 16:53:23;;;;;;;8.70;2.60;;;;;;;;;;5045027;28;20053;-85
2021/10/13 16:55:56;;;;;;;11.10;2.42;;;;;;;;;;5058945;28;20455;-85
2021/10/13 16:58:23;;;;;;;13.02;2.10;;;;;;;;;;5093919;28;20051;-85
2021/10/13 17:00:53;;;;;;;10.32;2.03;;;;;;;;;;5090067;28;20098;-84
2021/10/13 17:03:22;;;;;;;7.55;2.00;;;;;;;;;;5077422;28;20049;-84
2021/10/13 17:05:51;;;;;;;8.65;1.73;;;;;;;;;;5068924;28;20134;-84
2021/10/13 17:08:28;;;;;;;9.70;1.63;;;;;;;;;;5049633;28;20045;-85
2021/10/13 17:10:59;;;;;;;12.90;1.98;;;;;;;;;;5057038;28;20325;-82
2021/10/13 17:13:30;;;;;;;11.38;1.50;;;;;;;;;;5071054;28;20052;-84
2021/10/13 17:16:13;;;;;;;8.35;1.90;;;;;;;;;;5072355;28;20113;-84
2021/10/13 17:18:42;;;;;;;6.88;1.40;;;;;;;;;;5072184;28;20110;-84
2021/10/13 17:21:11;;;;;;;8.38;1.55;;;;;;;;;;5080138;28;20163;-84
2021/10/13 17:23:38;;;;;;;6.50;1.65;;;;;;;;;;5078057;28;20280;-84
2021/10/13 17:26:08;;;;;;;8.73;1.35;;;;;;;;;;5083903;28;20393;-84
2021/10/13 17:28:36;;;;;;;10.32;2.05;;;;;;;;;;5057021;28;20088;-84
2021/10/13 17:31:04;;;;;;;8.23;1.70;;;;;;;;;;5073879;28;20505;-84
2021/10/13 17:33:34;;;;;;;7.15;1.40;;;;;;;;;;5066022;28;20125;-84
2021/10/13 17:36:07;;;;;;;7.68;1.90;;;;;;;;;;5073370;28;20482;-85
2021/10/13 17:38:44;;;;;;;8.00;1.40;;;;;;;;;;5065698;28;20109;-85
2021/10/13 17:41:21;;;;;;;6.93;1.40;;;;;;;;;;5077432;28;20052;-85
2021/10/13 17:43:49;;;;;;;5.20;1.30;;;;;;;;;;5063471;28;20539;-85
2021/10/13 17:46:27;;;;;;;9.75;1.60;;;;;;;;;;5079610;28;20063;-84
2021/10/13 17:48:56;;;;;;;7.32;1.27;;;;;;;;;;5078959;28;20509;-84
2021/10/13 17:52:06;;;;;;;9.93;1.60;;;;;;;;;;5087094;28;20056;-85
2021/10/13 17:54:46;;;;;;;;;;;;;;;;;;;;;
2021/10/13 18:00:17;;;;;;;6.50;1.83;;;;;;;;;;5075144;28;20233;-85
2021/10/13 18:02:45;;;;;;;10.82;1.63;;;;;;;;;;5092478;28;20035;-85
2021/10/13 18:05:37;;;;;;;;;;;;;;;;;;;;;
2021/10/13 18:08:10;;;;;;;5.88;1.52;;;;;;;;;;5079814;28;20292;-83
2021/10/13 18:10:52;;;;;;;11.48;2.20;;;;;;;;;;5078409;28;20044;-84
2021/10/13 18:13:24;;;;;;;8.60;1.75;;;;;;;;;;5071307;28;20097;-84
2021/10/13 18:15:53;;;;;;;10.00;1.45;;;;;;;;;;5065489;28;20151;-83
2021/10/13 18:18:27;;;;;;;8.43;1.50;;;;;;;;;;5078459;28;20493;-84
2021/10/13 18:21:11;;;;;;;7.90;1.50;;;;;;;;;;5079930;28;20059;-83
2021/10/13 18:23:44;;;;;;;5.85;1.42;;;;;;;;;;5075978;28;20102;-83
2021/10/13 18:26:25;;;;;;;9.98;1.55;;;;;;;;;;5056725;28;20171;-83
2021/10/13 18:28:58;;;;;;;8.55;1.60;;;;;;;;;;5074183;28;20139;-83
2021/10/13 18:31:36;;;;;;;14.52;2.03;;;;;;;;;;5076400;28;20105;-83
2021/10/13 18:34:07;;;;;;;14.32;2.15;;;;;;;;;;5053890;28;20056;-83
2021/10/13 18:36:45;;;;;;;10.07;2.33;;;;;;;;;;5050256;28;20059;-83
2021/10/13 18:39:14;;;;;;;8.27;1.73;;;;;;;;;;5053226;28;20045;-84
2021/10/13 18:41:45;;;;;;;8.43;1.50;;;;;;;;;;5057016;28;20128;-84
2021/10/13 18:44:14;;;;;;;10.70;1.95;;;;;;;;;;5069346;28;20074;-83
2021/10/13 18:46:49;;;;;;;11.30;1.98;;;;;;;;;;5070434;28;20194;-85
2021/10/13 18:49:17;;;;;;;12.00;2.10;;;;;;;;;;5089758;28;20048;-83
2021/10/13 18:51:48;;;;;;;13.02;2.20;;;;;;;;;;5066297;28;20075;-85
2021/10/13 18:54:22;;;;;;;9.95;2.25;;;;;;;;;;5065057;28;20644;-85
2021/10/13 18:56:51;;;;;;;9.35;2.40;;;;;;;;;;5059361;28;20174;-84
2021/10/13 18:59:38;;;;;;;12.73;2.20;;;;;;;;;;5062549;28;20043;-84
2021/10/13 19:02:14;;;;;;;12.25;2.50;;;;;;;;;;5060538;28;20124;-85
2021/10/13 19:04:46;;;;;;;16.75;3.72;;;;;;;;;;5074170;28;20572;-85
2021/10/13 19:07:16;;;;;;;10.10;1.88;;;;;;;;;;5071154;28;20135;-84
2021/10/13 19:10:10;;;;;;;13.10;2.25;;;;;;;;;;5075557;28;20095;-84
2021/10/13 19:12:57;;;;;;;11.80;2.25;;;;;;;;;;5094389;28;20190;-84
2021/10/13 19:15:24;;;;;;;9.65;2.40;;;;;;;;;;5105423;28;20063;-84